Time;durP1;ratioP1;P1;durP2;ratioP2;P2;SDS_P1;SDS_P2;PMS_P1;PMS_P2;Temp;Humidity;BMP_temperature;BMP_pressure;BME280_temperature;BME280_humidity;BME280_pressure;Samples;Min_cycle;Max_cycle;Signal;HPM_P1;HPM_P2
2022/01/20 00:02:22;;;;;;;54.00;27.92;;;-1.00;82.80;;;-2.44;79.28;96794.00;4043503;34;20349;-87
2022/01/20 00:05:03;;;;;;;49.65;27.55;;;-1.00;82.90;;;-2.45;78.77;96791.50;4088024;34;20331;-86
2022/01/20 00:07:43;;;;;;;50.60;27.55;;;-0.90;83.00;;;-2.48;79.26;96779.28;4065552;34;20023;-84
2022/01/20 00:27:07;;;;;;;58.80;29.45;;;-1.00;82.70;;;-2.49;78.88;96757.00;4089294;34;20628;-87
2022/01/20 00:30:04;;;;;;;53.40;28.02;;;-1.00;82.90;;;-2.49;79.08;96762.34;4090494;34;20318;-84
2022/01/20 00:32:42;;;;;;;58.85;29.98;;;-1.00;82.80;;;-2.49;78.50;96762.34;4073186;34;20019;-85
2022/01/20 00:35:18;;;;;;;48.80;26.95;;;-1.00;82.80;;;-2.50;78.81;96759.84;4095725;34;20297;-86
2022/01/20 00:37:46;;;;;;;51.72;28.40;;;-1.00;82.90;;;-2.50;79.26;96755.31;4073049;34;20313;-86
2022/01/20 00:40:15;;;;;;;51.28;28.67;;;-1.00;83.00;;;-2.52;78.51;96753.81;4070864;34;20320;-85
2022/01/20 00:42:44;;;;;;;49.25;27.52;;;-1.00;82.60;;;-2.53;78.42;96750.31;4067823;34;20317;-85
2022/01/20 00:45:15;;;;;;;51.67;28.95;;;-1.00;82.70;;;-2.52;78.90;96748.47;4068114;34;20322;-85
2022/01/20 00:47:44;;;;;;;50.63;27.35;;;-1.00;82.80;;;-2.52;78.64;96735.06;4092275;34;20019;-86
2022/01/20 00:50:14;;;;;;;52.45;29.17;;;-1.00;82.90;;;-2.53;78.80;96739.59;4068452;34;20342;-86
2022/01/20 00:52:43;;;;;;;50.42;27.08;;;-1.00;82.90;;;-2.52;78.79;96735.88;4069106;34;20019;-85
2022/01/20 00:55:12;;;;;;;53.88;29.45;;;-1.00;83.00;;;-2.53;79.22;96734.25;4069154;34;20016;-85
2022/01/20 00:57:41;;;;;;;50.22;27.88;;;-1.00;83.20;;;-2.54;78.86;96727.22;4094491;33;19991;-86
2022/01/20 01:00:13;;;;;;;48.80;25.35;;;-1.00;83.10;;;-2.53;78.98;96718.16;4095800;33;20565;-86
2022/01/20 01:02:43;;;;;;;52.78;28.40;;;-1.00;83.10;;;-2.54;79.26;96719.16;4095503;33;20015;-86
2022/01/20 01:05:13;;;;;;;56.22;29.30;;;-1.00;83.20;;;-2.54;79.47;96721.84;4095753;33;20285;-86
2022/01/20 01:07:49;;;;;;;52.90;27.92;;;-1.00;83.20;;;-2.53;79.32;96720.00;4117933;33;20310;-86
2022/01/20 01:10:22;;;;;;;;;;;-1.10;83.10;;;-2.57;79.05;96711.47;4142265;33;20094;-86
2022/01/20 01:12:55;;;;;;;49.55;26.88;;;-1.00;82.90;;;-2.54;79.04;96715.63;4095259;33;20126;-86
2022/01/20 01:15:28;;;;;;;50.97;27.48;;;-1.00;82.90;;;-2.55;79.01;96704.09;4094562;33;20026;-86
2022/01/20 01:23:36;;;;;;;52.60;28.10;;;-1.10;82.90;;;-2.55;78.50;96700.56;4061485;34;20020;-85
2022/01/20 01:26:06;;;;;;;46.92;26.42;;;-1.10;82.70;;;-2.58;78.81;96682.16;4038587;34;20012;-86
2022/01/20 01:28:35;;;;;;;43.78;23.90;;;-1.10;82.70;;;-2.58;78.84;96672.28;4061295;34;20319;-86
2022/01/20 01:31:28;;;;;;;53.35;26.90;;;-1.10;82.80;;;-2.59;79.17;96667.91;4061015;34;20278;-85
2022/01/20 01:34:00;;;;;;;45.75;25.20;;;-1.10;83.10;;;-2.58;79.35;96658.88;4060701;34;20293;-86
2022/01/20 01:36:33;;;;;;;49.80;24.33;;;-1.10;83.10;;;-2.59;79.24;96657.19;4055293;34;20359;-86
2022/01/20 01:39:02;;;;;;;53.95;25.52;;;-1.10;83.00;;;-2.58;78.84;96655.38;4058830;34;20227;-86
2022/01/20 01:41:36;;;;;;;55.17;27.20;;;-1.10;82.90;;;-2.59;78.80;96654.50;4056670;34;20295;-85
2022/01/20 01:44:08;;;;;;;49.05;25.48;;;-1.10;82.80;;;-2.60;78.83;96647.47;4082403;34;20016;-86
2022/01/20 01:46:39;;;;;;;47.63;25.52;;;-1.10;82.90;;;-2.61;78.75;96645.81;4084786;34;20533;-85
2022/01/20 01:49:10;;;;;;;45.25;25.13;;;-1.10;82.70;;;-2.59;78.82;96649.16;4062778;34;20020;-85
2022/01/20 01:51:40;;;;;;;47.63;24.02;;;-1.10;83.10;;;-2.62;78.54;96636.94;4063124;34;20024;-84
2022/01/20 01:54:10;;;;;;;46.88;24.17;;;-1.10;82.80;;;-2.60;78.79;96638.63;4043751;34;20016;-85
2022/01/20 01:56:40;;;;;;;46.30;23.15;;;-1.10;82.80;;;-2.63;78.59;96635.28;4044081;34;20334;-85
2022/01/20 01:59:12;;;;;;;49.03;26.58;;;-1.10;82.70;;;-2.62;79.16;96639.63;4045304;34;20321;-85
2022/01/20 02:02:00;;;;;;;44.50;23.33;;;-1.10;82.90;;;-2.61;78.83;96632.41;4045214;34;20016;-85
2022/01/20 02:04:33;;;;;;;48.17;25.77;;;-1.10;82.90;;;-2.65;78.31;96623.06;4067119;34;20322;-85
2022/01/20 02:08:01;;;;;;;47.00;25.48;;;-1.10;82.70;;;-2.63;78.97;96626.38;4088895;34;20292;-85
2022/01/20 02:18:53;;;;;;;;;;;-1.10;83.00;;;-2.64;79.03;96630.06;4089258;34;19961;-85
2022/01/20 02:21:46;;;;;;;;;;;-1.10;83.00;;;-2.64;79.07;96614.00;4066341;34;20192;-84
2022/01/20 02:24:14;;;;;;;;;;;-1.10;82.80;;;-2.66;78.69;96616.03;4066762;34;20150;-85
2022/01/20 02:26:43;;;;;;;;;;;-1.10;82.80;;;-2.65;78.66;96623.06;4067119;34;20219;-85
2022/01/20 02:29:13;;;;;;;;;;;-1.20;82.60;;;-2.66;78.68;96611.50;4066282;34;19911;-85
2022/01/20 02:31:41;;;;;;;;;;;-1.20;82.60;;;-2.66;78.83;96610.69;4066354;34;20165;-86
2022/01/20 02:34:11;;;;;;;;;;;-1.20;82.90;;;-2.68;78.58;96602.81;4042379;34;20235;-86
2022/01/20 02:36:45;;;;;;;;;;;-1.20;82.80;;;-2.66;78.99;96613.38;4042166;34;19904;-85
2022/01/20 02:39:29;;;;;;;;;;;-1.20;82.90;;;-2.67;78.86;96609.00;4065857;34;19907;-85
2022/01/20 02:44:52;;;;;;;;;;;-1.20;82.80;;;-2.67;79.38;96600.97;4143360;33;19903;-85
2022/01/20 02:47:22;;;;;;;;;;;-1.20;82.90;;;-2.67;79.15;96604.47;4120180;33;20193;-84
2022/01/20 02:49:51;;;;;;;;;;;-1.20;82.80;;;-2.67;78.65;96598.28;4097104;33;20222;-85
2022/01/20 02:52:21;;;;;;;;;;;-1.20;82.60;;;-2.67;78.42;96588.41;4098107;33;19906;-85
2022/01/20 02:54:50;;;;;;;;;;;-1.20;82.60;;;-2.68;78.48;96580.53;4097194;33;19909;-85
2022/01/20 02:57:19;;;;;;;;;;;-1.20;82.60;;;-2.69;79.08;96577.00;4096682;33;19902;-85
2022/01/20 02:59:47;;;;;;;;;;;-1.20;83.00;;;-2.71;79.01;96573.66;4097356;33;20546;-85
2022/01/20 03:02:16;;;;;;;;;;;-1.20;82.80;;;-2.69;78.96;96590.41;4098422;33;20134;-85
2022/01/20 03:04:44;;;;;;;;;;;-1.20;82.80;;;-2.69;78.93;96581.56;4117359;33;20207;-85
2022/01/20 03:07:23;;;;;;;;;;;-1.20;82.80;;;-2.71;78.83;96570.16;4070508;34;19918;-85
2022/01/20 03:09:52;;;;;;;;;;;-1.20;82.70;;;-2.71;78.71;96556.78;4094162;34;19910;-85
2022/01/20 03:12:20;;;;;;;;;;;-1.20;82.60;;;-2.70;78.94;96558.44;4070380;34;20522;-85
2022/01/20 03:14:49;;;;;;;;;;;-1.20;83.10;;;-2.71;78.76;96556.78;4070299;34;19903;-85
2022/01/20 03:17:17;;;;;;;;;;;-1.20;82.90;;;-2.72;79.21;96552.41;4114731;33;20544;-85
2022/01/20 03:19:46;;;;;;;;;;;-1.20;83.00;;;-2.73;78.78;96545.41;4070805;34;20777;-85
2022/01/20 03:22:15;;;;;;;;;;;-1.20;82.80;;;-2.72;78.66;96544.38;4093674;34;19914;-85
2022/01/20 03:24:45;;;;;;;;;;;-1.20;82.90;;;-2.75;79.06;96537.53;4071915;34;20134;-85
2022/01/20 03:27:14;;;;;;;;;;;-1.20;83.10;;;-2.77;78.91;96529.66;4094646;34;20195;-85
2022/01/20 03:29:42;;;;;;;;;;;-1.20;83.10;;;-2.76;78.87;96533.19;4073186;34;20201;-85
2022/01/20 03:32:11;;;;;;;;;;;-1.30;82.90;;;-2.74;78.94;96538.38;4073778;34;20113;-85
2022/01/20 03:34:39;;;;;;;;;;;-1.20;82.80;;;-2.77;78.86;96534.19;4072935;34;20537;-85
2022/01/20 03:37:13;;;;;;;;;;;-1.30;83.00;;;-2.76;78.91;96530.50;4095123;34;19910;-85
2022/01/20 03:39:52;;;;;;;;;;;-1.20;82.80;;;-2.77;78.98;96527.00;4093561;34;20519;-85
2022/01/20 03:42:23;;;;;;;;;;;-1.30;82.90;;;-2.77;78.82;96524.31;4070892;34;20210;-85
2022/01/20 03:44:52;;;;;;;;;;;-1.30;83.00;;;-2.77;79.09;96524.31;4070834;34;20175;-85
2022/01/20 03:47:24;;;;;;;;;;;-1.30;83.00;;;-2.77;78.87;96531.53;4092145;34;20109;-84
2022/01/20 03:50:06;;;;;;;;;;;-1.30;82.70;;;-2.78;78.92;96528.03;4069870;34;19903;-85
2022/01/20 03:52:34;;;;;;;;;;;-1.30;82.70;;;-2.77;78.84;96518.13;4081686;34;20220;-85
2022/01/20 03:55:05;;;;;;;;;;;-1.30;82.80;;;-2.78;78.65;96527.19;4043060;34;20216;-85
2022/01/20 03:57:49;;;;;;;;;;;-1.30;82.80;;;-2.78;78.57;96521.81;4043310;34;19904;-86
2022/01/20 04:00:32;;;;;;;;;;;-1.30;82.90;;;-2.80;78.77;96519.31;4064324;34;20245;-85
2022/01/20 04:03:17;;;;;;;;;;;-1.30;83.00;;;-2.79;78.78;96515.63;4064537;34;19915;-86
2022/01/20 04:06:00;;;;;;;;;;;-1.30;82.90;;;-2.81;79.16;96516.81;4095826;33;20216;-86
2022/01/20 04:08:34;;;;;;;;;;;-1.30;83.10;;;-2.83;79.32;96506.28;4120477;33;20226;-85
2022/01/20 04:11:08;;;;;;;;;;;-1.30;83.20;;;-2.81;79.10;96511.44;4118466;33;20421;-85
2022/01/20 04:13:36;;;;;;;;;;;-1.30;82.80;;;-2.81;79.03;96519.50;4096220;33;19903;-86
2022/01/20 04:16:18;;;;;;;;;;;-1.30;82.90;;;-2.81;78.74;96520.34;4117437;33;20061;-85
2022/01/20 04:18:53;;;;;;;;;;;-1.30;82.80;;;-2.81;79.18;96517.66;4092951;33;19903;-85
2022/01/20 04:21:22;;;;;;;;;;;-1.30;83.00;;;-2.82;79.09;96513.31;4066768;34;19910;-85
2022/01/20 04:23:50;;;;;;;;;;;-1.30;83.10;;;-2.81;78.77;96506.09;4062513;34;20195;-85
2022/01/20 04:26:20;;;;;;;;;;;-1.30;82.90;;;-2.85;78.97;96505.63;4082444;34;20215;-84
2022/01/20 04:28:53;;;;;;;;;;;-1.30;82.90;;;-2.82;78.97;96510.63;4080883;34;20230;-84
2022/01/20 04:31:22;;;;;;;;;;;-1.30;83.00;;;-2.83;79.25;96505.44;4101970;34;20231;-85
2022/01/20 04:33:52;;;;;;;;;;;-1.30;83.20;;;-2.84;79.50;96501.94;4055981;34;20091;-85
2022/01/20 04:36:20;;;;;;;;;;;-1.40;83.00;;;-2.84;79.21;96509.97;4077331;34;20207;-85
2022/01/20 04:38:49;;;;;;;;;;;-1.40;83.00;;;-2.86;78.90;96512.00;4056935;34;20217;-86
2022/01/20 04:41:18;;;;;;;;;;;-1.30;83.10;;;-2.86;78.79;96501.28;4080447;34;19910;-85
2022/01/20 04:43:48;;;;;;;;;;;-1.30;83.10;;;-2.85;79.03;96500.25;4080302;34;20457;-85
2022/01/20 04:46:24;;;;;;;;;;;-1.30;82.90;;;-2.89;78.86;96492.75;4103825;33;19909;-85
2022/01/20 04:49:12;;;;;;;;;;;-1.30;83.20;;;-2.86;79.39;96492.41;4084647;33;19903;-85
2022/01/20 04:57:17;;;;;;;;;;;-1.40;83.00;;;-2.89;78.80;96488.22;4106112;33;19925;-85
2022/01/20 04:59:50;;;;;;;;;;;-1.40;82.90;;;-2.89;79.09;96488.22;4101769;34;20188;-85
2022/01/20 05:02:20;;;;;;;;;;;-1.40;82.90;;;-2.88;79.10;96489.06;4102681;34;20515;-84
2022/01/20 05:05:07;;;;;;;;;;;-1.40;82.90;;;-2.89;nan;96492.75;4057431;34;19910;-84
2022/01/20 05:07:56;;;;;;;;;;;-1.40;83.00;;;-2.88;79.00;96497.13;4079771;34;20211;-85
2022/01/20 05:10:27;;;;;;;;;;;-1.40;83.00;;;-2.91;78.96;96506.34;4059980;34;20205;-84
2022/01/20 05:13:10;;;;;;;;;;;-1.40;83.20;;;-2.90;78.87;96502.63;4082397;34;19907;-85
2022/01/20 05:15:42;;;;;;;;;;;-1.40;83.10;;;-2.90;79.11;96494.59;4093000;33;19902;-84
2022/01/20 05:18:10;;;;;;;;;;;-1.40;83.20;;;-2.90;79.09;96499.13;4087143;33;20514;-84
2022/01/20 05:20:39;;;;;;;;;;;-1.40;82.90;;;-2.93;79.09;96498.47;4087889;33;19902;-85
2022/01/20 05:23:10;;;;;;;;;;;-1.40;83.20;;;-2.93;78.99;96492.28;4109930;33;19902;-85
2022/01/20 05:25:39;;;;;;;;;;;-1.40;82.90;;;-2.92;79.09;96502.00;4110231;33;20205;-85
2022/01/20 05:28:08;;;;;;;;;;;-1.40;83.00;;;-2.93;79.01;96494.97;4138730;33;19925;-84
2022/01/20 05:30:38;;;;;;;;;;;-1.40;83.00;;;-2.93;78.64;96486.94;4115589;33;20244;-84
2022/01/20 05:33:27;;;;;;;;;;;-1.40;83.00;;;-2.94;78.86;96487.94;4113816;33;19933;-85
2022/01/20 05:35:56;;;;;;;;;;;-1.40;83.20;;;-2.94;78.99;96491.44;4115922;33;20211;-85
2022/01/20 05:38:25;;;;;;;;;;;-1.40;83.20;;;-2.94;78.75;96494.13;4092851;33;19910;-85
2022/01/20 05:40:54;;;;;;;;;;;-1.50;83.00;;;-2.94;78.99;96495.97;4088787;34;20234;-85
2022/01/20 05:43:22;;;;;;;;;;;-1.50;83.00;;;-2.97;79.06;96483.75;4065919;33;20203;-85
2022/01/20 05:45:52;;;;;;;;;;;-1.50;82.90;;;-2.95;78.56;96483.59;4089062;34;20064;-84
2022/01/20 05:48:32;;;;;;;;;;;-1.40;82.50;;;-2.95;78.99;96484.41;4088604;34;20203;-85
2022/01/20 05:51:38;;;;;;;;;;;-1.40;83.00;;;-2.95;78.71;96488.97;4063009;34;20231;-84
2022/01/20 05:54:07;;;;;;;;;;;-1.50;82.90;;;-2.96;79.11;96487.28;4088313;34;19910;-84
2022/01/20 05:56:36;;;;;;;;;;;-1.50;83.00;;;-2.96;79.13;96492.66;4087818;34;20203;-85
2022/01/20 05:59:05;;;;;;;;;;;-1.40;83.10;;;-2.98;78.88;96489.31;4088180;34;19903;-84
2022/01/20 06:01:36;;;;;;;;;;;-1.50;82.80;;;-2.98;79.06;96481.25;4088262;34;19910;-85
2022/01/20 06:04:08;;;;;;;;;;;-1.50;83.00;;;-2.98;79.16;96483.94;4087873;34;20114;-84
2022/01/20 06:06:39;;;;;;;;;;;-1.40;83.00;;;-2.97;79.05;96480.25;4087320;34;19903;-85
2022/01/20 06:09:08;;;;;;;;;;;-1.40;82.90;;;-2.94;79.11;96490.63;4065688;34;20179;-85
2022/01/20 06:11:37;;;;;;;;;;;-1.40;83.00;;;-2.93;78.99;96494.97;4087141;34;20224;-85
2022/01/20 06:14:08;;;;;;;;;;;-1.40;83.00;;;-2.90;78.52;96497.28;4087508;34;20508;-85
2022/01/20 06:16:38;;;;;;;;;;;-1.40;82.80;;;-2.85;78.91;96489.53;4089211;34;19903;-85
2022/01/20 06:19:07;;;;;;;;;;;-1.40;82.50;;;-2.83;78.26;96489.34;4067881;34;20219;-84
2022/01/20 06:21:37;;;;;;;;;;;-1.30;82.60;;;-2.78;78.27;96487.84;4089817;34;19910;-85
2022/01/20 06:24:08;;;;;;;;;;;-1.30;82.40;;;-2.73;78.08;96481.94;4069680;34;20245;-85
2022/01/20 06:26:36;;;;;;;;;;;-1.20;82.30;;;-2.67;78.43;96491.09;4101222;33;19902;-84
2022/01/20 06:29:05;;;;;;;;;;;-1.20;82.20;;;-2.65;78.04;96478.34;4097762;33;20186;-84
2022/01/20 06:31:34;;;;;;;;;;;-1.20;81.90;;;-2.61;77.56;96471.59;4097127;33;19910;-85
2022/01/20 06:34:02;;;;;;;;;;;-1.10;81.70;;;-2.57;77.54;96475.59;4096705;33;20448;-84
2022/01/20 06:36:31;;;;;;;;;;;-1.10;81.50;;;-2.55;77.22;96468.22;4091098;34;20211;-85
2022/01/20 06:39:01;;;;;;;;;;;-1.00;81.10;;;-2.50;77.45;96479.19;4090512;34;19910;-85
2022/01/20 06:41:35;;;;;;;;;;;-1.00;81.30;;;-2.48;77.35;96482.53;4113099;34;20554;-85
2022/01/20 06:44:05;;;;;;;;;;;-1.00;80.90;;;-2.44;77.06;96479.50;4067450;34;20469;-85
2022/01/20 06:46:33;;;;;;;;;;;-0.90;80.80;;;-2.41;77.03;96489.88;4089391;34;19903;-85
2022/01/20 06:49:17;;;;;;;;;;;-0.90;80.80;;;-2.40;76.94;96486.19;4090277;34;19907;-85
2022/01/20 06:51:57;;;;;;;;;;;-0.90;80.60;;;-2.37;76.65;96485.78;4090006;34;19903;-86
2022/01/20 06:54:26;;;;;;;;;;;-0.90;80.30;;;-2.36;76.71;96503.56;4067656;34;20209;-85
2022/01/20 06:56:56;;;;;;;;;;;-0.90;80.20;;;-2.37;76.98;96501.88;4090655;34;19903;-86
2022/01/20 06:59:25;;;;;;;;;;;-0.90;80.40;;;-2.36;76.51;96490.16;4070412;34;19903;-86
2022/01/20 07:01:54;;;;;;;;;;;-0.90;80.40;;;-2.32;76.31;96499.50;4070915;34;20202;-85
2022/01/20 07:04:27;;;;;;;;;;;-0.90;80.20;;;-2.34;76.81;96490.81;4092983;34;20214;-86
2022/01/20 07:06:56;;;;;;;;;;;-0.90;80.40;;;-2.34;76.99;96480.06;4115517;34;20232;-86
2022/01/20 07:09:43;;;;;;;;;;;-0.80;80.50;;;-2.33;76.14;96466.50;4116718;33;20200;-87
2022/01/20 07:12:24;;;;;;;;;;;-0.80;80.30;;;-2.34;76.63;96464.84;4105135;33;20191;-86
2022/01/20 07:14:53;;;;;;;;;;;-0.80;80.30;;;-2.32;76.57;96464.63;4098861;33;20205;-87
2022/01/20 07:17:22;;;;;;;;;;;-0.80;80.30;;;-2.35;76.60;96456.97;4119997;33;20220;-87
2022/01/20 07:19:53;;;;;;;;;;;-0.80;80.30;;;-2.35;76.82;96455.13;4120525;33;19902;-86
2022/01/20 07:22:23;;;;;;;;;;;-0.80;80.30;;;-2.32;76.50;96457.41;4096292;33;19903;-87
2022/01/20 07:24:54;;;;;;;;;;;-0.80;80.40;;;-2.29;76.57;96458.91;4141279;33;20191;-86
2022/01/20 07:27:47;;;;;;;;;;;-0.80;80.40;;;-2.31;76.42;96463.63;4125534;33;19903;-86
2022/01/20 07:30:15;;;;;;;;;;;-0.80;80.40;;;-2.27;76.83;96464.94;4088782;33;19909;-87
2022/01/20 07:32:44;;;;;;;;;;;-0.80;80.40;;;-2.26;76.87;96461.22;4111807;33;20233;-86
2022/01/20 07:35:18;;;;;;;;;;;-0.80;80.40;;;-2.22;76.77;96453.66;4088669;33;20194;-86
2022/01/20 07:37:48;;;;;;;;;;;-0.80;80.30;;;-2.22;76.65;96456.34;4110849;33;20091;-87
2022/01/20 07:40:16;;;;;;;;;;;-0.80;80.20;;;-2.22;76.50;96446.44;4088601;33;20212;-87
2022/01/20 07:42:46;;;;;;;;;;;-0.70;80.50;;;-2.16;76.54;96460.94;4100922;34;20523;-87
2022/01/20 07:45:41;;;;;;;;;;;-0.70;80.50;;;-2.14;76.88;96460.78;4077680;34;20236;-86
2022/01/20 07:48:23;;;;;;;;;;;-0.70;80.50;;;-2.10;76.35;96465.59;4081201;34;19903;-86
2022/01/20 07:51:01;;;;;;;;;;;-0.70;80.60;;;-2.07;76.71;96464.38;4058132;34;20193;-86
2022/01/20 07:53:35;;;;;;;;;;;-0.70;80.70;;;-2.03;76.78;96471.06;4059076;34;20194;-87
2022/01/20 07:56:05;;;;;;;;;;;-0.60;80.70;;;-2.03;76.74;96471.88;4079604;34;20079;-87
2022/01/20 07:58:35;;;;;;;;;;;-0.60;80.50;;;-1.96;76.47;96471.97;4059243;34;19903;-87
2022/01/20 08:01:04;;;;;;;;;;;-0.60;80.50;;;-1.94;76.33;96480.69;4058543;34;20211;-87
2022/01/20 08:03:38;;;;;;;;;;;-0.50;80.40;;;-1.90;76.21;96473.09;4103465;34;19933;-89
2022/01/20 08:06:09;;;;;;;;;;;-0.50;80.50;;;-1.88;76.16;96479.94;4060334;34;19910;-85
2022/01/20 08:08:42;;;;;;;;;;;-0.50;80.30;;;-1.83;75.80;96483.91;4096859;33;20112;-87
2022/01/20 08:11:34;;;;;;;;;;;-0.40;79.80;;;-1.78;75.83;96484.19;4110564;33;19902;-86
2022/01/20 08:14:30;;;;;;;;;;;-0.40;79.90;;;-1.75;75.77;96486.50;4083713;33;20199;-86
2022/01/20 08:16:58;;;;;;;;;;;-0.40;79.80;;;-1.71;75.61;96485.09;4087569;33;20201;-86
2022/01/20 08:19:27;;;;;;;;;;;-0.40;79.60;;;-1.69;75.32;96483.06;4092963;33;19903;-86
2022/01/20 08:21:56;;;;;;;;;;;-0.30;79.40;;;-1.65;74.71;96492.44;4117121;33;20616;-86
2022/01/20 08:24:25;;;;;;;;;;;-0.30;79.00;;;-1.62;75.27;96485.84;4139882;33;19902;-87
2022/01/20 08:26:53;;;;;;;;;;;-0.30;79.20;;;-1.64;75.25;96486.03;4088631;33;20201;-87
2022/01/20 08:29:22;;;;;;;;;;;-0.20;79.40;;;-1.65;75.20;96488.91;4117705;33;19910;-87
2022/01/20 08:31:52;;;;;;;;;;;-0.20;79.00;;;-1.73;75.24;96484.47;4094543;33;19903;-87
2022/01/20 08:34:38;;;;;;;;;;;-0.30;79.10;;;-1.75;75.08;96475.78;4093976;33;20211;-87
2022/01/20 08:37:42;;;;;;;;;;;-0.30;79.00;;;-1.77;75.49;96477.81;4086521;33;20237;-87
2022/01/20 08:40:12;;;;;;;;;;;-0.30;79.20;;;-1.78;75.57;96492.25;4141785;33;20536;-87
2022/01/20 08:42:42;;;;;;;;;;;-0.40;79.10;;;-1.80;75.58;96491.59;4091406;33;19909;-87
2022/01/20 08:45:11;;;;;;;;;;;-0.30;79.30;;;-1.83;75.54;96497.31;4088830;33;19910;-86
2022/01/20 08:47:43;;;;;;;;;;;-0.40;79.20;;;-1.90;75.77;96498.06;4092566;33;20188;-86
2022/01/20 08:50:12;;;;;;;;;;;-0.40;79.20;;;-1.92;75.27;96491.22;4094690;33;20183;-87
2022/01/20 08:52:41;;;;;;;;;;;-0.40;79.10;;;-1.97;75.04;96493.63;4116903;33;20208;-86
2022/01/20 08:55:10;;;;;;;;;;;-0.50;78.90;;;-2.03;75.46;96487.97;4094339;33;20240;-86
2022/01/20 08:58:05;;;;;;;;;;;-0.50;79.00;;;-2.08;75.41;96495.75;4111984;33;19907;-87
2022/01/20 09:00:35;;;;;;;;;;;-0.60;78.90;;;-2.16;75.41;96494.00;4096591;33;19902;-86
2022/01/20 09:03:09;;;;;;;;;;;-0.70;79.20;;;-2.17;75.81;96500.38;4096715;33;19911;-87
2022/01/20 09:05:38;;;;;;;;;;;-0.70;79.20;;;-2.21;75.67;96491.00;4119945;33;20210;-87
2022/01/20 09:08:29;;;;;;;;;;;-0.70;79.40;;;-2.25;76.24;96495.06;4119808;33;19902;-87
2022/01/20 09:11:07;;;;;;;;;;;-0.80;79.50;;;-2.29;75.48;96493.78;4096292;33;19903;-87
2022/01/20 09:16:23;;;;;;;;;;;-0.80;79.60;;;-2.33;75.76;96489.78;4118097;33;19951;-86
2022/01/20 09:19:14;;;;;;;;;;;-0.80;79.60;;;-2.36;76.29;96479.41;4118268;33;19902;-86
2022/01/20 09:21:55;;;;;;;;;;;-0.90;80.00;;;-2.39;76.23;96475.25;4095780;33;20262;-87
2022/01/20 09:24:26;;;;;;;;;;;-0.90;80.20;;;-2.41;76.38;96479.16;4118734;33;20193;-86
2022/01/20 09:26:55;;;;;;;;;;;-0.90;80.20;;;-2.41;76.64;96468.44;4096321;33;19906;-87
2022/01/20 09:29:24;;;;;;;;;;;-0.90;80.40;;;-2.45;76.46;96461.75;4118820;33;20574;-87
2022/01/20 09:31:53;;;;;;;;;;;-0.90;80.40;;;-2.47;76.50;96453.91;4116418;33;19903;-86
2022/01/20 09:34:28;;;;;;;;;;;-1.00;80.30;;;-2.48;76.65;96438.84;4116250;33;20541;-87
2022/01/20 09:36:57;;;;;;;;;;;-1.00;80.50;;;-2.50;77.09;96447.03;4116062;33;20222;-86
2022/01/20 09:39:26;;;;;;;;;;;-1.00;80.60;;;-2.53;76.88;96439.38;4094089;33;19909;-86
2022/01/20 09:42:02;;;;;;;;;;;-1.00;81.60;;;-2.53;76.83;96431.34;4116347;33;20528;-87
2022/01/20 09:44:34;;;;;;;;;;;-1.00;80.70;;;-2.53;76.99;96431.34;4095174;33;20201;-86
2022/01/20 09:47:04;;;;;;;;;;;-1.00;80.90;;;-2.56;76.85;96418.28;4117723;33;20201;-86
2022/01/20 09:50:10;;;;;;;;;;;-1.00;80.90;;;-2.55;77.18;96419.97;4010862;34;19928;-86
2022/01/20 09:52:48;;;;;;;;;;;-1.00;81.00;;;-2.56;77.19;96407.56;4082731;33;20113;-86
2022/01/20 09:55:42;;;;;;;;;;;-1.10;81.10;;;-2.57;77.04;96397.88;4118446;33;20513;-86
2022/01/20 09:58:12;;;;;;;;;;;-1.10;81.10;;;-2.59;77.47;96374.94;4097726;33;20220;-87
2022/01/20 10:00:42;;;;;;;;;;;-1.10;81.20;;;-2.58;77.75;96366.72;4099241;33;19937;-87
2022/01/20 10:03:12;;;;;;;;;;;-1.10;81.20;;;-2.59;77.66;96354.34;4144441;33;19902;-86
2022/01/20 10:05:43;;;;;;;;;;;-1.10;81.20;;;-2.61;76.83;96353.69;4100285;33;19902;-86
2022/01/20 10:08:16;;;;;;;;;;;-1.10;81.20;;;-2.60;77.38;96349.97;4122558;33;20191;-86
2022/01/20 10:11:00;;;;;;;;;;;-1.10;81.20;;;-2.59;77.53;96357.00;4143302;33;19938;-87
2022/01/20 10:13:51;;;;;;;;;;;-1.10;81.50;;;-2.58;77.25;96345.28;4095068;33;19910;-87
2022/01/20 10:16:39;;;;;;;;;;;-1.10;81.20;;;-2.58;77.23;96339.09;4117000;33;19904;-87
2022/01/20 10:19:23;;;;;;;;;;;-1.10;81.20;;;-2.60;77.23;96335.75;4117877;33;19902;-86
2022/01/20 10:21:53;;;;;;;;;;;-1.10;81.20;;;-2.59;77.09;96330.22;4095487;33;20091;-87
2022/01/20 10:25:02;;;;;;;;;;;-1.10;81.20;;;-2.59;77.63;96330.22;4084363;34;20223;-86
2022/01/20 10:27:58;;;;;;;;;;;-1.10;81.10;;;-2.58;77.12;96312.28;4054827;34;20206;-86
2022/01/20 10:30:28;;;;;;;;;;;-1.10;81.10;;;-2.59;77.40;96300.72;4065278;34;20230;-87
2022/01/20 10:32:59;;;;;;;;;;;-1.10;81.00;;;-2.58;77.63;96302.41;4062797;34;20198;-87
2022/01/20 10:35:34;;;;;;;;;;;-1.10;81.00;;;-2.56;77.31;96300.38;4085295;34;19919;-86
2022/01/20 10:38:12;;;;;;;;;;;-1.10;81.10;;;-2.56;77.21;96278.91;4062602;34;19907;-86
2022/01/20 10:40:47;;;;;;;;;;;-1.00;81.10;;;-2.51;77.31;96264.97;4041382;34;19999;-87
2022/01/20 10:43:23;;;;;;;;;;;-1.00;80.80;;;-2.44;77.02;96273.91;4086377;34;20456;-86
2022/01/20 10:46:06;;;;;;;;;;;-1.00;80.70;;;-2.40;76.64;96271.72;4062456;34;20199;-86
2022/01/20 10:48:34;;;;;;;;;;;-0.90;80.60;;;-2.37;76.67;96261.44;4062117;34;20204;-86
2022/01/20 10:51:15;;;;;;;;;;;-0.90;80.40;;;-2.33;76.66;96261.88;4063632;34;20220;-86
2022/01/20 10:53:46;;;;;;;;;;;-0.80;80.20;;;-2.31;76.74;96266.03;4064373;34;19956;-85
2022/01/20 10:56:17;;;;;;;;;;;-0.80;80.20;;;-2.27;76.42;96260.28;4063549;34;20216;-86
2022/01/20 10:58:46;;;;;;;;;;;-0.80;80.00;;;-2.28;76.64;96237.19;4064936;34;20015;-85
2022/01/20 11:01:16;;;;;;;;;;;-0.80;79.90;;;-2.25;76.01;96240.31;4063939;34;20195;-86
2022/01/20 11:03:45;;;;;;;;;;;-0.70;79.90;;;-2.25;75.99;96232.25;4062688;34;19954;-85
2022/01/20 11:06:18;;;;;;;;;;;-0.70;79.80;;;-2.22;76.17;96223.84;4064055;34;20756;-87
2022/01/20 11:08:55;;;;;;;;;;;-0.70;79.70;;;-2.21;76.19;96211.28;4065456;34;20222;-86
2022/01/20 11:11:36;;;;;;;;;;;-0.70;79.70;;;-2.22;75.79;96202.41;4086178;34;20199;-86
2022/01/20 11:14:26;;;;;;;;;;;-0.70;79.70;;;-2.20;76.11;96194.19;4063126;34;20215;-86
2022/01/20 11:16:54;;;;;;;;;;;-0.70;79.60;;;-2.23;76.39;96176.59;4062111;34;20163;-86
2022/01/20 11:19:23;;;;;;;;;;;-0.70;79.60;;;-2.19;76.27;96191.28;4062647;34;20203;-86
2022/01/20 11:21:53;;;;;;;;;;;-0.70;79.60;;;-2.20;76.34;96186.13;4063984;34;19903;-86
2022/01/20 11:24:26;;;;;;;;;;;-0.70;79.60;;;-2.19;76.24;96182.41;4083529;34;20200;-86
2022/01/20 11:27:15;;;;;;;;;;;-0.70;79.50;;;-2.20;76.48;96173.53;4056826;34;19911;-86
2022/01/20 11:30:01;;;;;;;;;;;-0.70;79.50;;;-2.22;76.25;96162.16;4057258;34;20229;-87
2022/01/20 11:32:39;;;;;;;;;;;-0.70;79.50;;;-2.21;76.43;96179.09;4056913;34;20220;-86
2022/01/20 11:35:21;;;;;;;;;;;-0.70;79.60;;;-2.22;75.97;96175.56;4034449;34;20518;-86
2022/01/20 11:37:56;;;;;;;;;;;-0.70;79.60;;;-2.26;75.71;96152.84;4033811;34;20232;-85
2022/01/20 11:40:26;;;;;;;;;;;-0.70;79.50;;;-2.24;76.12;96158.84;4078353;34;20111;-85
2022/01/20 11:42:59;;;;;;;;;;;-0.70;79.60;;;-2.25;75.85;96157.19;4056017;34;20225;-86
2022/01/20 11:45:32;;;;;;;;;;;-0.70;79.60;;;-2.25;76.44;96157.19;4056706;34;20223;-85
2022/01/20 11:48:12;;;;;;;;;;;-0.70;79.60;;;-2.29;76.36;96153.25;4078346;34;20207;-85
2022/01/20 11:50:43;;;;;;;;;;;-0.70;79.70;;;-2.30;75.87;96143.53;4054107;34;20187;-86
2022/01/20 11:53:16;;;;;;;;;;;-0.70;79.70;;;-2.28;76.03;96133.47;4053172;34;20213;-86
2022/01/20 11:55:48;;;;;;;;;;;-0.80;79.60;;;-2.30;76.23;96119.41;4054882;34;19903;-86
2022/01/20 11:58:19;;;;;;;;;;;-0.80;79.60;;;-2.30;76.23;96108.69;4055653;34;19914;-86
2022/01/20 12:00:59;;;;;;;;;;;-0.80;79.60;;;-2.30;76.31;96100.63;4055699;34;19911;-86
2022/01/20 12:03:27;;;;;;;;;;;-0.80;79.60;;;-2.31;75.81;96093.59;4033424;34;19926;-86
2022/01/20 12:06:00;;;;;;;;;;;-0.80;79.60;;;-2.33;76.42;96082.25;4033571;34;20223;-86
2022/01/20 12:08:37;;;;;;;;;;;-0.80;79.70;;;-2.33;76.25;96090.28;4078258;34;19914;-86
2022/01/20 12:11:08;;;;;;;;;;;-0.80;79.70;;;-2.34;76.50;96084.09;4078978;34;20215;-86
2022/01/20 12:13:46;;;;;;;;;;;-0.80;79.70;;;-2.34;76.40;96078.75;4055153;34;19903;-86
2022/01/20 12:16:18;;;;;;;;;;;-0.80;79.70;;;-2.36;76.17;96078.09;4054883;34;19911;-86
2022/01/20 12:18:50;;;;;;;;;;;-0.80;79.70;;;-2.37;76.18;96078.28;4055815;34;20192;-86
2022/01/20 12:21:19;;;;;;;;;;;-0.80;79.70;;;-2.37;76.28;96078.28;4055529;34;19903;-86